sensor_id;sensor_type;location;lat;lon;timestamp;P1;durP1;ratioP1;P2;durP2;ratioP2
15067;SDS011;7633;60.024;18.770;2023-07-28T00:01:57;2.10;;;1.63;;
15067;SDS011;7633;60.024;18.770;2023-07-28T00:04:23;1.53;;;1.40;;
15067;SDS011;7633;60.024;18.770;2023-07-28T00:06:49;2.20;;;1.40;;
15067;SDS011;7633;60.024;18.770;2023-07-28T00:09:19;3.43;;;1.73;;
15067;SDS011;7633;60.024;18.770;2023-07-28T00:11:47;2.00;;;1.60;;
15067;SDS011;7633;60.024;18.770;2023-07-28T00:14:14;1.60;;;1.13;;
15067;SDS011;7633;60.024;18.770;2023-07-28T00:16:40;1.57;;;1.30;;
15067;SDS011;7633;60.024;18.770;2023-07-28T00:19:06;3.40;;;1.50;;
15067;SDS011;7633;60.024;18.770;2023-07-28T00:21:32;1.83;;;1.40;;
15067;SDS011;7633;60.024;18.770;2023-07-28T00:23:57;2.33;;;1.40;;
15067;SDS011;7633;60.024;18.770;2023-07-28T00:26:23;1.67;;;1.50;;
15067;SDS011;7633;60.024;18.770;2023-07-28T00:28:49;2.17;;;1.43;;
15067;SDS011;7633;60.024;18.770;2023-07-28T00:31:15;2.13;;;1.50;;
15067;SDS011;7633;60.024;18.770;2023-07-28T00:33:41;2.23;;;1.50;;
15067;SDS011;7633;60.024;18.770;2023-07-28T00:36:07;2.63;;;1.50;;
15067;SDS011;7633;60.024;18.770;2023-07-28T00:38:33;1.80;;;1.40;;
15067;SDS011;7633;60.024;18.770;2023-07-28T00:40:59;1.40;;;1.23;;
15067;SDS011;7633;60.024;18.770;2023-07-28T00:43:25;2.83;;;1.50;;
15067;SDS011;7633;60.024;18.770;2023-07-28T00:45:51;2.13;;;1.50;;
15067;SDS011;7633;60.024;18.770;2023-07-28T00:48:17;1.97;;;1.30;;
15067;SDS011;7633;60.024;18.770;2023-07-28T00:50:46;2.10;;;1.60;;
15067;SDS011;7633;60.024;18.770;2023-07-28T00:53:13;1.30;;;1.20;;
15067;SDS011;7633;60.024;18.770;2023-07-28T00:55:38;1.73;;;1.50;;
15067;SDS011;7633;60.024;18.770;2023-07-28T00:58:04;2.00;;;1.57;;
15067;SDS011;7633;60.024;18.770;2023-07-28T01:00:30;1.67;;;1.43;;
15067;SDS011;7633;60.024;18.770;2023-07-28T01:02:56;1.67;;;1.10;;
15067;SDS011;7633;60.024;18.770;2023-07-28T01:05:28;1.50;;;1.40;;
15067;SDS011;7633;60.024;18.770;2023-07-28T01:08:02;1.80;;;1.40;;
15067;SDS011;7633;60.024;18.770;2023-07-28T01:10:32;2.80;;;1.53;;
15067;SDS011;7633;60.024;18.770;2023-07-28T01:12:58;3.93;;;2.10;;
15067;SDS011;7633;60.024;18.770;2023-07-28T01:15:25;2.63;;;1.60;;
15067;SDS011;7633;60.024;18.770;2023-07-28T01:17:52;2.03;;;1.50;;
15067;SDS011;7633;60.024;18.770;2023-07-28T01:20:18;1.80;;;1.37;;
15067;SDS011;7633;60.024;18.770;2023-07-28T01:27:48;1.40;;;1.30;;
15067;SDS011;7633;60.024;18.770;2023-07-28T01:30:15;2.83;;;1.63;;
15067;SDS011;7633;60.024;18.770;2023-07-28T01:32:41;2.07;;;1.40;;
15067;SDS011;7633;60.024;18.770;2023-07-28T01:35:06;1.57;;;1.47;;
15067;SDS011;7633;60.024;18.770;2023-07-28T01:37:32;1.80;;;1.50;;
15067;SDS011;7633;60.024;18.770;2023-07-28T01:39:57;2.00;;;1.40;;
15067;SDS011;7633;60.024;18.770;2023-07-28T01:42:23;1.57;;;1.30;;
15067;SDS011;7633;60.024;18.770;2023-07-28T01:44:49;1.57;;;1.47;;
15067;SDS011;7633;60.024;18.770;2023-07-28T01:47:15;1.70;;;1.33;;
15067;SDS011;7633;60.024;18.770;2023-07-28T01:49:41;1.80;;;1.20;;
15067;SDS011;7633;60.024;18.770;2023-07-28T01:52:06;3.50;;;1.57;;
15067;SDS011;7633;60.024;18.770;2023-07-28T01:54:32;1.73;;;1.30;;
15067;SDS011;7633;60.024;18.770;2023-07-28T01:56:58;1.90;;;1.30;;
15067;SDS011;7633;60.024;18.770;2023-07-28T01:59:24;2.13;;;1.40;;
15067;SDS011;7633;60.024;18.770;2023-07-28T02:01:50;4.17;;;2.13;;
15067;SDS011;7633;60.024;18.770;2023-07-28T02:04:15;2.60;;;1.67;;
15067;SDS011;7633;60.024;18.770;2023-07-28T02:06:41;11.10;;;2.60;;
15067;SDS011;7633;60.024;18.770;2023-07-28T02:09:07;10.33;;;3.30;;
15067;SDS011;7633;60.024;18.770;2023-07-28T02:11:33;8.80;;;2.17;;
15067;SDS011;7633;60.024;18.770;2023-07-28T02:13:58;4.80;;;2.20;;
15067;SDS011;7633;60.024;18.770;2023-07-28T02:16:24;5.20;;;2.40;;
15067;SDS011;7633;60.024;18.770;2023-07-28T02:18:49;14.70;;;3.27;;
15067;SDS011;7633;60.024;18.770;2023-07-28T02:21:14;3.77;;;2.47;;
15067;SDS011;7633;60.024;18.770;2023-07-28T02:23:40;4.70;;;2.10;;
15067;SDS011;7633;60.024;18.770;2023-07-28T02:26:06;3.07;;;2.10;;
15067;SDS011;7633;60.024;18.770;2023-07-28T02:28:31;4.17;;;1.87;;
15067;SDS011;7633;60.024;18.770;2023-07-28T02:30:57;3.77;;;1.60;;
15067;SDS011;7633;60.024;18.770;2023-07-28T02:33:22;1.80;;;1.30;;
15067;SDS011;7633;60.024;18.770;2023-07-28T02:35:48;2.13;;;1.43;;
15067;SDS011;7633;60.024;18.770;2023-07-28T02:38:13;3.17;;;1.40;;
15067;SDS011;7633;60.024;18.770;2023-07-28T02:40:39;1.67;;;1.53;;
15067;SDS011;7633;60.024;18.770;2023-07-28T02:43:04;2.33;;;1.50;;
15067;SDS011;7633;60.024;18.770;2023-07-28T02:45:29;1.93;;;1.57;;
15067;SDS011;7633;60.024;18.770;2023-07-28T02:47:55;1.93;;;1.70;;
15067;SDS011;7633;60.024;18.770;2023-07-28T02:50:20;2.37;;;2.10;;
15067;SDS011;7633;60.024;18.770;2023-07-28T02:52:46;2.50;;;2.00;;
15067;SDS011;7633;60.024;18.770;2023-07-28T02:55:12;3.03;;;2.00;;
15067;SDS011;7633;60.024;18.770;2023-07-28T02:57:37;8.80;;;2.10;;
15067;SDS011;7633;60.024;18.770;2023-07-28T03:00:03;2.93;;;1.90;;
15067;SDS011;7633;60.024;18.770;2023-07-28T03:02:30;4.20;;;2.13;;
15067;SDS011;7633;60.024;18.770;2023-07-28T03:04:56;5.83;;;2.13;;
15067;SDS011;7633;60.024;18.770;2023-07-28T03:07:21;8.90;;;2.37;;
15067;SDS011;7633;60.024;18.770;2023-07-28T03:09:47;7.23;;;2.70;;
15067;SDS011;7633;60.024;18.770;2023-07-28T03:12:12;2.33;;;1.80;;
15067;SDS011;7633;60.024;18.770;2023-07-28T03:14:38;5.97;;;2.13;;
15067;SDS011;7633;60.024;18.770;2023-07-28T03:17:04;2.93;;;1.90;;
15067;SDS011;7633;60.024;18.770;2023-07-28T03:19:29;2.33;;;1.60;;
15067;SDS011;7633;60.024;18.770;2023-07-28T03:21:54;2.87;;;1.60;;
15067;SDS011;7633;60.024;18.770;2023-07-28T03:24:20;2.13;;;1.67;;
15067;SDS011;7633;60.024;18.770;2023-07-28T03:26:45;2.43;;;1.50;;
15067;SDS011;7633;60.024;18.770;2023-07-28T03:29:11;2.13;;;1.53;;
15067;SDS011;7633;60.024;18.770;2023-07-28T03:31:36;2.07;;;1.60;;
15067;SDS011;7633;60.024;18.770;2023-07-28T03:34:02;2.73;;;1.80;;
15067;SDS011;7633;60.024;18.770;2023-07-28T03:36:27;2.17;;;1.80;;
15067;SDS011;7633;60.024;18.770;2023-07-28T03:38:53;1.93;;;1.70;;
15067;SDS011;7633;60.024;18.770;2023-07-28T03:41:18;3.30;;;1.73;;
15067;SDS011;7633;60.024;18.770;2023-07-28T03:43:44;1.90;;;1.70;;
15067;SDS011;7633;60.024;18.770;2023-07-28T03:46:10;1.60;;;1.40;;
15067;SDS011;7633;60.024;18.770;2023-07-28T03:48:35;3.33;;;1.57;;
15067;SDS011;7633;60.024;18.770;2023-07-28T03:51:01;1.70;;;1.27;;
15067;SDS011;7633;60.024;18.770;2023-07-28T03:53:27;1.30;;;1.20;;
15067;SDS011;7633;60.024;18.770;2023-07-28T03:55:52;1.43;;;1.30;;
15067;SDS011;7633;60.024;18.770;2023-07-28T03:58:18;2.07;;;1.50;;
15067;SDS011;7633;60.024;18.770;2023-07-28T04:00:44;1.70;;;1.60;;
15067;SDS011;7633;60.024;18.770;2023-07-28T04:03:09;2.13;;;1.30;;
15067;SDS011;7633;60.024;18.770;2023-07-28T04:05:36;2.97;;;1.37;;
15067;SDS011;7633;60.024;18.770;2023-07-28T04:08:01;2.00;;;1.70;;
15067;SDS011;7633;60.024;18.770;2023-07-28T04:10:27;2.10;;;1.50;;
15067;SDS011;7633;60.024;18.770;2023-07-28T04:12:52;2.27;;;1.33;;
15067;SDS011;7633;60.024;18.770;2023-07-28T04:15:18;1.50;;;1.30;;
15067;SDS011;7633;60.024;18.770;2023-07-28T04:17:43;1.85;;;1.67;;
15067;SDS011;7633;60.024;18.770;2023-07-28T04:20:08;2.13;;;1.40;;
15067;SDS011;7633;60.024;18.770;2023-07-28T04:22:34;1.50;;;1.40;;
15067;SDS011;7633;60.024;18.770;2023-07-28T04:24:59;1.75;;;1.30;;
15067;SDS011;7633;60.024;18.770;2023-07-28T04:27:25;2.38;;;1.48;;
15067;SDS011;7633;60.024;18.770;2023-07-28T04:29:50;1.60;;;1.40;;
15067;SDS011;7633;60.024;18.770;2023-07-28T04:32:15;3.20;;;1.45;;
15067;SDS011;7633;60.024;18.770;2023-07-28T04:34:41;1.73;;;1.42;;
15067;SDS011;7633;60.024;18.770;2023-07-28T04:37:07;1.75;;;1.65;;
15067;SDS011;7633;60.024;18.770;2023-07-28T04:39:32;1.80;;;1.70;;
15067;SDS011;7633;60.024;18.770;2023-07-28T04:41:57;2.63;;;1.40;;
15067;SDS011;7633;60.024;18.770;2023-07-28T04:44:23;1.70;;;1.50;;
15067;SDS011;7633;60.024;18.770;2023-07-28T04:46:48;2.88;;;1.38;;
15067;SDS011;7633;60.024;18.770;2023-07-28T04:49:14;2.10;;;1.60;;
15067;SDS011;7633;60.024;18.770;2023-07-28T04:51:39;2.42;;;1.50;;
15067;SDS011;7633;60.024;18.770;2023-07-28T04:54:04;2.22;;;1.48;;
15067;SDS011;7633;60.024;18.770;2023-07-28T04:56:30;4.35;;;1.75;;
15067;SDS011;7633;60.024;18.770;2023-07-28T04:58:55;1.50;;;1.30;;
15067;SDS011;7633;60.024;18.770;2023-07-28T05:01:20;1.95;;;1.40;;
15067;SDS011;7633;60.024;18.770;2023-07-28T05:03:46;1.98;;;1.30;;
15067;SDS011;7633;60.024;18.770;2023-07-28T05:06:12;2.05;;;1.23;;
15067;SDS011;7633;60.024;18.770;2023-07-28T05:08:38;1.85;;;1.10;;
15067;SDS011;7633;60.024;18.770;2023-07-28T05:11:03;1.92;;;1.30;;
15067;SDS011;7633;60.024;18.770;2023-07-28T05:13:29;1.45;;;1.00;;
15067;SDS011;7633;60.024;18.770;2023-07-28T05:15:54;2.03;;;1.45;;
15067;SDS011;7633;60.024;18.770;2023-07-28T05:18:20;2.10;;;1.25;;
15067;SDS011;7633;60.024;18.770;2023-07-28T05:20:45;2.42;;;1.73;;
15067;SDS011;7633;60.024;18.770;2023-07-28T05:23:11;1.83;;;1.40;;
15067;SDS011;7633;60.024;18.770;2023-07-28T05:25:36;1.55;;;1.35;;
15067;SDS011;7633;60.024;18.770;2023-07-28T05:28:02;1.95;;;1.20;;
15067;SDS011;7633;60.024;18.770;2023-07-28T05:30:27;2.20;;;1.20;;
15067;SDS011;7633;60.024;18.770;2023-07-28T05:32:56;1.80;;;1.20;;
15067;SDS011;7633;60.024;18.770;2023-07-28T05:35:21;2.58;;;1.40;;
15067;SDS011;7633;60.024;18.770;2023-07-28T05:37:47;3.47;;;1.35;;
15067;SDS011;7633;60.024;18.770;2023-07-28T05:40:12;1.30;;;1.20;;
15067;SDS011;7633;60.024;18.770;2023-07-28T05:42:38;1.80;;;1.45;;
15067;SDS011;7633;60.024;18.770;2023-07-28T05:45:03;2.17;;;1.50;;
15067;SDS011;7633;60.024;18.770;2023-07-28T05:47:29;1.40;;;1.30;;
15067;SDS011;7633;60.024;18.770;2023-07-28T05:49:55;1.30;;;1.20;;
15067;SDS011;7633;60.024;18.770;2023-07-28T05:52:20;1.75;;;1.30;;
15067;SDS011;7633;60.024;18.770;2023-07-28T05:54:48;1.98;;;1.40;;
15067;SDS011;7633;60.024;18.770;2023-07-28T05:57:14;2.38;;;1.60;;
15067;SDS011;7633;60.024;18.770;2023-07-28T05:59:39;1.88;;;1.40;;
15067;SDS011;7633;60.024;18.770;2023-07-28T06:02:05;1.92;;;1.23;;
15067;SDS011;7633;60.024;18.770;2023-07-28T06:04:31;2.13;;;1.30;;
15067;SDS011;7633;60.024;18.770;2023-07-28T06:06:56;1.75;;;1.10;;
15067;SDS011;7633;60.024;18.770;2023-07-28T06:09:22;2.53;;;1.20;;
15067;SDS011;7633;60.024;18.770;2023-07-28T06:11:47;3.05;;;1.52;;
15067;SDS011;7633;60.024;18.770;2023-07-28T06:14:13;3.13;;;1.50;;
15067;SDS011;7633;60.024;18.770;2023-07-28T06:16:38;1.85;;;1.13;;
15067;SDS011;7633;60.024;18.770;2023-07-28T06:19:04;1.25;;;1.10;;
15067;SDS011;7633;60.024;18.770;2023-07-28T06:21:33;2.63;;;1.25;;
15067;SDS011;7633;60.024;18.770;2023-07-28T06:23:59;3.50;;;1.42;;
15067;SDS011;7633;60.024;18.770;2023-07-28T06:26:25;1.55;;;1.20;;
15067;SDS011;7633;60.024;18.770;2023-07-28T06:28:50;1.48;;;1.15;;
15067;SDS011;7633;60.024;18.770;2023-07-28T06:31:15;2.72;;;1.65;;
15067;SDS011;7633;60.024;18.770;2023-07-28T06:33:41;2.78;;;1.38;;
15067;SDS011;7633;60.024;18.770;2023-07-28T06:36:07;2.92;;;1.30;;
15067;SDS011;7633;60.024;18.770;2023-07-28T06:38:32;2.17;;;1.17;;
15067;SDS011;7633;60.024;18.770;2023-07-28T06:40:58;2.58;;;1.20;;
15067;SDS011;7633;60.024;18.770;2023-07-28T06:43:23;1.30;;;1.17;;
15067;SDS011;7633;60.024;18.770;2023-07-28T06:45:52;3.00;;;1.27;;
15067;SDS011;7633;60.024;18.770;2023-07-28T06:48:20;2.70;;;1.80;;
15067;SDS011;7633;60.024;18.770;2023-07-28T06:50:55;3.30;;;1.45;;
15067;SDS011;7633;60.024;18.770;2023-07-28T06:53:22;3.38;;;1.67;;
15067;SDS011;7633;60.024;18.770;2023-07-28T06:55:48;4.68;;;1.27;;
15067;SDS011;7633;60.024;18.770;2023-07-28T06:58:15;2.90;;;1.10;;
15067;SDS011;7633;60.024;18.770;2023-07-28T07:00:43;3.90;;;1.50;;
15067;SDS011;7633;60.024;18.770;2023-07-28T07:03:10;7.63;;;1.67;;
15067;SDS011;7633;60.024;18.770;2023-07-28T07:05:37;3.88;;;1.50;;
15067;SDS011;7633;60.024;18.770;2023-07-28T07:08:02;2.00;;;1.08;;
15067;SDS011;7633;60.024;18.770;2023-07-28T07:10:28;0.85;;;0.70;;
15067;SDS011;7633;60.024;18.770;2023-07-28T07:12:54;2.25;;;0.73;;
15067;SDS011;7633;60.024;18.770;2023-07-28T07:15:22;1.02;;;0.82;;
15067;SDS011;7633;60.024;18.770;2023-07-28T07:17:47;1.27;;;0.73;;
15067;SDS011;7633;60.024;18.770;2023-07-28T07:20:12;2.05;;;0.65;;
15067;SDS011;7633;60.024;18.770;2023-07-28T07:22:38;1.13;;;0.80;;
15067;SDS011;7633;60.024;18.770;2023-07-28T07:25:04;2.17;;;0.93;;
15067;SDS011;7633;60.024;18.770;2023-07-28T07:27:30;1.27;;;0.80;;
15067;SDS011;7633;60.024;18.770;2023-07-28T07:29:56;2.13;;;0.80;;
15067;SDS011;7633;60.024;18.770;2023-07-28T07:32:21;2.10;;;1.25;;
15067;SDS011;7633;60.024;18.770;2023-07-28T07:34:47;1.13;;;0.80;;
15067;SDS011;7633;60.024;18.770;2023-07-28T07:37:12;1.55;;;0.70;;
15067;SDS011;7633;60.024;18.770;2023-07-28T07:39:38;1.50;;;1.02;;
15067;SDS011;7633;60.024;18.770;2023-07-28T07:42:03;1.08;;;0.82;;
15067;SDS011;7633;60.024;18.770;2023-07-28T07:44:30;1.08;;;0.70;;
15067;SDS011;7633;60.024;18.770;2023-07-28T07:46:56;1.45;;;0.98;;
15067;SDS011;7633;60.024;18.770;2023-07-28T07:49:22;2.47;;;1.02;;
15067;SDS011;7633;60.024;18.770;2023-07-28T07:51:48;1.42;;;1.00;;
15067;SDS011;7633;60.024;18.770;2023-07-28T07:54:14;0.98;;;0.80;;
15067;SDS011;7633;60.024;18.770;2023-07-28T07:56:41;1.70;;;0.93;;
15067;SDS011;7633;60.024;18.770;2023-07-28T07:59:07;1.30;;;0.95;;
15067;SDS011;7633;60.024;18.770;2023-07-28T08:01:33;1.88;;;1.33;;
15067;SDS011;7633;60.024;18.770;2023-07-28T08:03:59;1.63;;;0.85;;
15067;SDS011;7633;60.024;18.770;2023-07-28T08:06:25;2.13;;;1.10;;
15067;SDS011;7633;60.024;18.770;2023-07-28T08:08:51;1.50;;;1.10;;
15067;SDS011;7633;60.024;18.770;2023-07-28T08:11:17;1.60;;;0.82;;
15067;SDS011;7633;60.024;18.770;2023-07-28T08:13:43;1.02;;;0.77;;
15067;SDS011;7633;60.024;18.770;2023-07-28T08:16:09;1.65;;;0.80;;
15067;SDS011;7633;60.024;18.770;2023-07-28T08:18:35;0.80;;;0.80;;
15067;SDS011;7633;60.024;18.770;2023-07-28T08:21:01;1.50;;;1.33;;
15067;SDS011;7633;60.024;18.770;2023-07-28T08:23:26;2.28;;;0.93;;
15067;SDS011;7633;60.024;18.770;2023-07-28T08:25:52;1.40;;;1.00;;
15067;SDS011;7633;60.024;18.770;2023-07-28T08:28:17;1.58;;;0.90;;
15067;SDS011;7633;60.024;18.770;2023-07-28T08:30:43;1.20;;;0.93;;
15067;SDS011;7633;60.024;18.770;2023-07-28T08:33:08;1.08;;;0.90;;
15067;SDS011;7633;60.024;18.770;2023-07-28T08:35:34;1.33;;;1.08;;
15067;SDS011;7633;60.024;18.770;2023-07-28T08:37:59;1.35;;;1.15;;
15067;SDS011;7633;60.024;18.770;2023-07-28T08:40:25;1.23;;;1.10;;
15067;SDS011;7633;60.024;18.770;2023-07-28T08:42:52;1.80;;;0.90;;
15067;SDS011;7633;60.024;18.770;2023-07-28T08:45:19;1.20;;;0.90;;
15067;SDS011;7633;60.024;18.770;2023-07-28T08:47:44;0.93;;;0.80;;
15067;SDS011;7633;60.024;18.770;2023-07-28T08:50:10;0.73;;;0.73;;
15067;SDS011;7633;60.024;18.770;2023-07-28T08:52:36;0.70;;;0.68;;
15067;SDS011;7633;60.024;18.770;2023-07-28T08:55:02;1.08;;;0.80;;
15067;SDS011;7633;60.024;18.770;2023-07-28T08:57:28;0.70;;;0.70;;
15067;SDS011;7633;60.024;18.770;2023-07-28T08:59:54;0.63;;;0.63;;
15067;SDS011;7633;60.024;18.770;2023-07-28T09:02:19;1.15;;;0.90;;
15067;SDS011;7633;60.024;18.770;2023-07-28T09:04:46;2.42;;;0.80;;
15067;SDS011;7633;60.024;18.770;2023-07-28T09:07:12;1.05;;;0.70;;
15067;SDS011;7633;60.024;18.770;2023-07-28T09:09:37;0.90;;;0.73;;
15067;SDS011;7633;60.024;18.770;2023-07-28T09:12:03;1.17;;;1.00;;
15067;SDS011;7633;60.024;18.770;2023-07-28T09:14:29;1.67;;;1.13;;
15067;SDS011;7633;60.024;18.770;2023-07-28T09:16:55;1.65;;;1.00;;
15067;SDS011;7633;60.024;18.770;2023-07-28T09:19:20;1.67;;;1.00;;
15067;SDS011;7633;60.024;18.770;2023-07-28T09:21:47;1.35;;;0.98;;
15067;SDS011;7633;60.024;18.770;2023-07-28T09:24:21;1.77;;;0.90;;
15067;SDS011;7633;60.024;18.770;2023-07-28T09:26:47;1.30;;;1.10;;
15067;SDS011;7633;60.024;18.770;2023-07-28T09:29:15;1.90;;;1.10;;
15067;SDS011;7633;60.024;18.770;2023-07-28T09:31:42;1.90;;;1.23;;
15067;SDS011;7633;60.024;18.770;2023-07-28T09:34:08;2.33;;;1.20;;
15067;SDS011;7633;60.024;18.770;2023-07-28T09:36:34;1.65;;;1.00;;
15067;SDS011;7633;60.024;18.770;2023-07-28T09:38:59;1.15;;;1.05;;
15067;SDS011;7633;60.024;18.770;2023-07-28T09:41:26;2.35;;;1.10;;
15067;SDS011;7633;60.024;18.770;2023-07-28T09:43:54;1.00;;;0.90;;
15067;SDS011;7633;60.024;18.770;2023-07-28T09:46:19;1.23;;;0.90;;
15067;SDS011;7633;60.024;18.770;2023-07-28T09:48:46;1.15;;;0.80;;
15067;SDS011;7633;60.024;18.770;2023-07-28T09:51:19;1.33;;;0.88;;
15067;SDS011;7633;60.024;18.770;2023-07-28T09:53:46;1.13;;;0.80;;
15067;SDS011;7633;60.024;18.770;2023-07-28T09:56:16;1.13;;;0.80;;
15067;SDS011;7633;60.024;18.770;2023-07-28T09:58:44;1.00;;;0.70;;
15067;SDS011;7633;60.024;18.770;2023-07-28T10:01:12;0.82;;;0.73;;
15067;SDS011;7633;60.024;18.770;2023-07-28T10:03:38;1.30;;;0.80;;
15067;SDS011;7633;60.024;18.770;2023-07-28T10:06:04;1.75;;;0.80;;
15067;SDS011;7633;60.024;18.770;2023-07-28T10:08:30;0.85;;;0.70;;
15067;SDS011;7633;60.024;18.770;2023-07-28T10:10:56;1.65;;;1.20;;
15067;SDS011;7633;60.024;18.770;2023-07-28T10:13:22;1.08;;;0.80;;
15067;SDS011;7633;60.024;18.770;2023-07-28T10:15:48;1.85;;;0.82;;
15067;SDS011;7633;60.024;18.770;2023-07-28T10:18:19;0.98;;;0.90;;
15067;SDS011;7633;60.024;18.770;2023-07-28T10:20:44;0.90;;;0.90;;
15067;SDS011;7633;60.024;18.770;2023-07-28T10:23:20;1.00;;;0.90;;
15067;SDS011;7633;60.024;18.770;2023-07-28T10:25:47;0.90;;;0.80;;
15067;SDS011;7633;60.024;18.770;2023-07-28T10:28:30;0.80;;;0.70;;
15067;SDS011;7633;60.024;18.770;2023-07-28T10:31:02;1.02;;;0.80;;
15067;SDS011;7633;60.024;18.770;2023-07-28T10:33:28;1.05;;;0.73;;
15067;SDS011;7633;60.024;18.770;2023-07-28T10:35:54;1.80;;;0.85;;
15067;SDS011;7633;60.024;18.770;2023-07-28T10:38:32;0.70;;;0.60;;
15067;SDS011;7633;60.024;18.770;2023-07-28T10:41:06;1.45;;;0.80;;
15067;SDS011;7633;60.024;18.770;2023-07-28T10:43:32;2.60;;;0.90;;
15067;SDS011;7633;60.024;18.770;2023-07-28T10:45:59;0.82;;;0.82;;
15067;SDS011;7633;60.024;18.770;2023-07-28T10:48:25;1.55;;;0.73;;
15067;SDS011;7633;60.024;18.770;2023-07-28T10:50:51;1.40;;;0.90;;
15067;SDS011;7633;60.024;18.770;2023-07-28T10:53:17;0.98;;;0.70;;
15067;SDS011;7633;60.024;18.770;2023-07-28T10:55:42;1.92;;;1.00;;
15067;SDS011;7633;60.024;18.770;2023-07-28T10:58:08;1.33;;;0.80;;
15067;SDS011;7633;60.024;18.770;2023-07-28T11:00:33;1.42;;;0.90;;
15067;SDS011;7633;60.024;18.770;2023-07-28T11:02:59;1.00;;;0.90;;
15067;SDS011;7633;60.024;18.770;2023-07-28T11:05:25;1.42;;;0.80;;
15067;SDS011;7633;60.024;18.770;2023-07-28T11:07:53;1.52;;;1.10;;
15067;SDS011;7633;60.024;18.770;2023-07-28T11:10:18;1.35;;;1.10;;
15067;SDS011;7633;60.024;18.770;2023-07-28T11:12:45;1.50;;;0.90;;
15067;SDS011;7633;60.024;18.770;2023-07-28T11:15:12;1.48;;;0.80;;
15067;SDS011;7633;60.024;18.770;2023-07-28T11:17:38;1.88;;;1.13;;
15067;SDS011;7633;60.024;18.770;2023-07-28T11:20:05;2.15;;;0.90;;
15067;SDS011;7633;60.024;18.770;2023-07-28T11:22:39;1.13;;;1.00;;
15067;SDS011;7633;60.024;18.770;2023-07-28T11:25:08;1.58;;;0.90;;
15067;SDS011;7633;60.024;18.770;2023-07-28T11:27:35;2.88;;;1.17;;
15067;SDS011;7633;60.024;18.770;2023-07-28T11:30:01;1.30;;;0.95;;
15067;SDS011;7633;60.024;18.770;2023-07-28T11:32:28;1.50;;;0.95;;
15067;SDS011;7633;60.024;18.770;2023-07-28T11:34:54;1.10;;;1.00;;
15067;SDS011;7633;60.024;18.770;2023-07-28T11:37:20;1.02;;;0.80;;
15067;SDS011;7633;60.024;18.770;2023-07-28T11:39:46;1.50;;;0.77;;
15067;SDS011;7633;60.024;18.770;2023-07-28T11:42:11;1.50;;;0.90;;
15067;SDS011;7633;60.024;18.770;2023-07-28T11:44:37;1.00;;;0.90;;
15067;SDS011;7633;60.024;18.770;2023-07-28T11:47:04;1.10;;;1.00;;
15067;SDS011;7633;60.024;18.770;2023-07-28T11:49:30;0.93;;;0.60;;
15067;SDS011;7633;60.024;18.770;2023-07-28T11:51:55;0.95;;;0.73;;
15067;SDS011;7633;60.024;18.770;2023-07-28T11:54:24;2.38;;;1.02;;
15067;SDS011;7633;60.024;18.770;2023-07-28T11:56:51;1.00;;;0.90;;
15067;SDS011;7633;60.024;18.770;2023-07-28T11:59:19;1.98;;;1.10;;
15067;SDS011;7633;60.024;18.770;2023-07-28T12:02:00;1.10;;;1.00;;
15067;SDS011;7633;60.024;18.770;2023-07-28T12:04:30;1.65;;;1.02;;
15067;SDS011;7633;60.024;18.770;2023-07-28T12:07:09;1.55;;;1.10;;
15067;SDS011;7633;60.024;18.770;2023-07-28T12:12:11;1.58;;;1.00;;
15067;SDS011;7633;60.024;18.770;2023-07-28T12:14:38;2.15;;;1.05;;
15067;SDS011;7633;60.024;18.770;2023-07-28T12:17:11;1.08;;;0.88;;
15067;SDS011;7633;60.024;18.770;2023-07-28T12:19:40;1.05;;;0.93;;
15067;SDS011;7633;60.024;18.770;2023-07-28T12:22:07;1.10;;;1.00;;
15067;SDS011;7633;60.024;18.770;2023-07-28T12:24:33;1.10;;;0.85;;
15067;SDS011;7633;60.024;18.770;2023-07-28T12:26:58;2.17;;;1.13;;
15067;SDS011;7633;60.024;18.770;2023-07-28T12:29:24;1.10;;;1.00;;
15067;SDS011;7633;60.024;18.770;2023-07-28T12:31:49;1.10;;;0.90;;
15067;SDS011;7633;60.024;18.770;2023-07-28T12:34:14;1.45;;;1.17;;
15067;SDS011;7633;60.024;18.770;2023-07-28T12:36:40;1.35;;;1.10;;
15067;SDS011;7633;60.024;18.770;2023-07-28T12:39:06;1.88;;;0.93;;
15067;SDS011;7633;60.024;18.770;2023-07-28T12:41:31;1.52;;;1.10;;
15067;SDS011;7633;60.024;18.770;2023-07-28T12:43:56;1.30;;;1.00;;
15067;SDS011;7633;60.024;18.770;2023-07-28T12:46:22;1.20;;;0.95;;
15067;SDS011;7633;60.024;18.770;2023-07-28T12:48:47;1.08;;;1.00;;
15067;SDS011;7633;60.024;18.770;2023-07-28T12:51:13;2.05;;;1.10;;
15067;SDS011;7633;60.024;18.770;2023-07-28T12:53:38;1.05;;;0.88;;
15067;SDS011;7633;60.024;18.770;2023-07-28T12:56:04;2.28;;;1.42;;
15067;SDS011;7633;60.024;18.770;2023-07-28T12:58:29;1.63;;;0.90;;
15067;SDS011;7633;60.024;18.770;2023-07-28T13:00:56;1.02;;;0.93;;
15067;SDS011;7633;60.024;18.770;2023-07-28T13:03:23;1.52;;;1.20;;
15067;SDS011;7633;60.024;18.770;2023-07-28T13:05:48;2.42;;;1.10;;
15067;SDS011;7633;60.024;18.770;2023-07-28T13:08:14;1.10;;;1.00;;
15067;SDS011;7633;60.024;18.770;2023-07-28T13:10:39;1.10;;;1.00;;
15067;SDS011;7633;60.024;18.770;2023-07-28T13:13:04;0.80;;;0.80;;
15067;SDS011;7633;60.024;18.770;2023-07-28T13:15:30;1.65;;;0.93;;
15067;SDS011;7633;60.024;18.770;2023-07-28T13:17:55;1.83;;;1.23;;
15067;SDS011;7633;60.024;18.770;2023-07-28T13:20:20;2.35;;;1.10;;
15067;SDS011;7633;60.024;18.770;2023-07-28T13:22:46;1.58;;;1.48;;
15067;SDS011;7633;60.024;18.770;2023-07-28T13:25:11;1.08;;;0.85;;
15067;SDS011;7633;60.024;18.770;2023-07-28T13:27:38;1.67;;;0.80;;
15067;SDS011;7633;60.024;18.770;2023-07-28T13:30:03;0.90;;;0.90;;
15067;SDS011;7633;60.024;18.770;2023-07-28T13:32:30;1.20;;;1.00;;
15067;SDS011;7633;60.024;18.770;2023-07-28T13:34:55;1.23;;;0.75;;
15067;SDS011;7633;60.024;18.770;2023-07-28T13:37:21;1.00;;;0.90;;
15067;SDS011;7633;60.024;18.770;2023-07-28T13:39:47;1.48;;;1.00;;
15067;SDS011;7633;60.024;18.770;2023-07-28T13:42:12;0.85;;;0.82;;
15067;SDS011;7633;60.024;18.770;2023-07-28T13:44:41;1.20;;;0.93;;
15067;SDS011;7633;60.024;18.770;2023-07-28T13:47:06;1.02;;;0.80;;
15067;SDS011;7633;60.024;18.770;2023-07-28T13:49:32;1.30;;;0.80;;
15067;SDS011;7633;60.024;18.770;2023-07-28T13:52:01;1.98;;;0.85;;
15067;SDS011;7633;60.024;18.770;2023-07-28T13:54:26;2.35;;;0.98;;
15067;SDS011;7633;60.024;18.770;2023-07-28T13:56:52;1.63;;;0.88;;
15067;SDS011;7633;60.024;18.770;2023-07-28T13:59:18;1.02;;;0.80;;
15067;SDS011;7633;60.024;18.770;2023-07-28T14:01:43;1.00;;;0.95;;
15067;SDS011;7633;60.024;18.770;2023-07-28T14:04:09;1.25;;;1.10;;
15067;SDS011;7633;60.024;18.770;2023-07-28T14:06:34;1.20;;;1.00;;
15067;SDS011;7633;60.024;18.770;2023-07-28T14:08:59;1.50;;;1.02;;
15067;SDS011;7633;60.024;18.770;2023-07-28T14:11:25;1.00;;;0.90;;
15067;SDS011;7633;60.024;18.770;2023-07-28T14:13:50;1.25;;;0.90;;
15067;SDS011;7633;60.024;18.770;2023-07-28T14:16:16;1.05;;;0.95;;
15067;SDS011;7633;60.024;18.770;2023-07-28T14:18:41;2.25;;;1.00;;
15067;SDS011;7633;60.024;18.770;2023-07-28T14:21:07;1.67;;;0.80;;
15067;SDS011;7633;60.024;18.770;2023-07-28T14:23:32;0.82;;;0.75;;
15067;SDS011;7633;60.024;18.770;2023-07-28T14:25:58;1.58;;;1.13;;
15067;SDS011;7633;60.024;18.770;2023-07-28T14:28:24;1.20;;;1.08;;
15067;SDS011;7633;60.024;18.770;2023-07-28T14:30:51;1.88;;;1.05;;
15067;SDS011;7633;60.024;18.770;2023-07-28T14:33:17;1.10;;;1.00;;
15067;SDS011;7633;60.024;18.770;2023-07-28T14:35:43;0.80;;;0.80;;
15067;SDS011;7633;60.024;18.770;2023-07-28T14:38:09;1.13;;;0.73;;
15067;SDS011;7633;60.024;18.770;2023-07-28T14:40:35;1.08;;;0.85;;
15067;SDS011;7633;60.024;18.770;2023-07-28T14:43:01;0.75;;;0.75;;
15067;SDS011;7633;60.024;18.770;2023-07-28T14:45:26;1.35;;;0.88;;
15067;SDS011;7633;60.024;18.770;2023-07-28T14:47:51;1.00;;;0.80;;
15067;SDS011;7633;60.024;18.770;2023-07-28T14:50:17;1.75;;;1.40;;